Time;durP1;ratioP1;P1;durP2;ratioP2;P2;SDS_P1;SDS_P2;PMS_P1;PMS_P2;Temp;Humidity;BMP_temperature;BMP_pressure;BME280_temperature;BME280_humidity;BME280_pressure;Samples;Min_cycle;Max_cycle;Signal;HPM_P1;HPM_P2
2022/09/26 00:00:42;;;;;;;10.45;4.25;;;;;;;10.22;99.81;100893.38;4950099;29;20483;-68
2022/09/26 00:03:09;;;;;;;8.25;3.78;;;;;;;10.23;99.68;100891.53;4932860;29;20054;-68
2022/09/26 00:05:36;;;;;;;7.53;4.10;;;;;;;10.21;99.76;100888.22;4950168;28;20031;-68
2022/09/26 00:08:02;;;;;;;6.72;3.65;;;;;;;10.16;100.00;100888.78;4950230;28;20510;-68
2022/09/26 00:10:27;;;;;;;9.05;4.47;;;;;;;10.19;100.00;100882.25;4953766;29;20035;-68
2022/09/26 00:12:55;;;;;;;10.30;4.55;;;;;;;10.18;100.00;100881.44;4953760;29;20561;-68
2022/09/26 00:15:20;;;;;;;7.80;4.22;;;;;;;10.20;100.00;100879.41;4953810;29;20058;-68
2022/09/26 00:17:46;;;;;;;5.25;3.85;;;;;;;10.20;100.00;100876.75;4953614;29;20074;-68
2022/09/26 00:20:11;;;;;;;7.95;4.47;;;;;;;10.21;100.00;100869.56;4953336;28;20462;-68
2022/09/26 00:22:36;;;;;;;6.70;4.18;;;;;;;10.22;100.00;100865.91;4953772;29;20109;-68
2022/09/26 00:25:03;;;;;;;7.88;4.53;;;;;;;10.23;100.00;100856.88;4953427;29;20066;-68
2022/09/26 00:27:28;;;;;;;7.90;4.22;;;;;;;10.24;100.00;100855.84;4953335;29;20031;-68
2022/09/26 00:29:53;;;;;;;7.82;4.85;;;;;;;10.24;100.00;100850.50;4953391;29;20058;-68
2022/09/26 00:32:19;;;;;;;8.50;4.88;;;;;;;10.25;100.00;100847.66;4953428;29;20529;-69
2022/09/26 00:34:45;;;;;;;6.82;3.97;;;;;;;10.30;100.00;100849.78;4953246;28;20502;-68
2022/09/26 00:37:10;;;;;;;6.45;3.58;;;;;;;10.30;100.00;100842.59;4953300;28;20047;-68
2022/09/26 00:39:35;;;;;;;8.90;4.38;;;;;;;10.33;100.00;100835.25;4953305;29;20480;-68
2022/09/26 00:42:01;;;;;;;7.88;4.47;;;;;;;10.35;99.79;100838.50;4953055;29;20130;-68
2022/09/26 00:44:47;;;;;;;7.85;4.20;;;;;;;10.37;100.00;100834.63;4953152;29;20471;-68
2022/09/26 00:47:24;;;;;;;8.45;3.88;;;;;;;10.37;99.87;100831.16;4952912;29;20035;-68
2022/09/26 00:49:54;;;;;;;8.70;4.32;;;;;;;10.36;100.00;100817.00;4953096;29;20141;-68
2022/09/26 00:52:23;;;;;;;6.20;4.32;;;;;;;10.40;99.73;100820.09;4952964;29;20035;-68
2022/09/26 00:54:52;;;;;;;8.00;4.30;;;;;;;10.44;99.81;100816.03;4953053;28;20404;-68
2022/09/26 00:57:27;;;;;;;8.30;3.97;;;;;;;10.43;100.00;100809.88;4952992;29;20055;-68
2022/09/26 00:59:59;;;;;;;8.30;4.72;;;;;;;10.45;100.00;100807.00;4952874;28;20027;-68
2022/09/26 01:02:27;;;;;;;6.47;3.63;;;;;;;10.48;99.86;100812.78;4952980;29;20118;-68
2022/09/26 01:04:55;;;;;;;6.55;4.43;;;;;;;10.50;100.00;100799.22;4952737;28;20057;-68
2022/09/26 01:07:24;;;;;;;10.32;4.35;;;;;;;10.51;100.00;100796.38;4952718;28;20024;-68
2022/09/26 01:09:51;;;;;;;7.57;4.10;;;;;;;10.52;100.00;100791.84;4952561;29;20090;-68
2022/09/26 01:12:17;;;;;;;9.52;4.20;;;;;;;10.54;99.95;100789.81;4952593;29;20069;-68
2022/09/26 01:14:45;;;;;;;6.63;3.95;;;;;;;10.56;99.66;100779.78;4952558;28;20450;-68
2022/09/26 01:17:10;;;;;;;7.85;4.40;;;;;;;10.53;99.49;100772.16;4952592;29;20019;-68
2022/09/26 01:20:05;;;;;;;7.82;4.13;;;;;;;10.56;99.67;100758.44;4935045;28;20067;-68
2022/09/26 01:22:47;;;;;;;7.30;3.90;;;;;;;10.57;99.30;100767.28;4952476;29;20043;-68
2022/09/26 01:25:50;;;;;;;7.47;4.55;;;;;;;10.58;99.13;100756.38;4952345;29;20032;-68
2022/09/26 01:28:34;;;;;;;10.93;4.75;;;;;;;10.58;98.86;100742.22;4952333;29;20402;-68
2022/09/26 01:31:10;;;;;;;8.95;3.88;;;;;;;10.59;98.68;100735.91;4952310;29;20031;-68
2022/09/26 01:33:51;;;;;;;11.90;4.25;;;;;;;10.62;98.74;100736.31;4952335;28;20118;-68
2022/09/26 01:36:33;;;;;;;7.18;3.72;;;;;;;10.64;98.28;100730.78;4952357;28;20292;-68
2022/09/26 01:39:40;;;;;;;6.88;4.05;;;;;;;10.66;98.12;100718.91;4952291;29;20027;-68
2022/09/26 01:42:15;;;;;;;6.65;3.47;;;;;;;10.70;97.87;100708.63;4952104;29;20259;-68
2022/09/26 01:44:46;;;;;;;6.72;3.53;;;;;;;10.71;97.45;100704.94;4952115;29;20040;-68
2022/09/26 01:47:37;;;;;;;11.20;4.30;;;;;;;10.75;97.56;100703.53;4951945;29;20035;-68
2022/09/26 01:50:18;;;;;;;8.05;3.70;;;;;;;10.74;97.29;100689.38;4915673;28;20055;-68
2022/09/26 01:53:02;;;;;;;9.35;3.42;;;;;;;10.75;97.15;100690.19;4951938;28;20030;-68
2022/09/26 01:55:35;;;;;;;6.05;3.88;;;;;;;10.74;97.07;100676.03;4951936;29;20479;-68
2022/09/26 01:58:32;;;;;;;7.35;3.63;;;;;;;10.76;96.65;100675.81;4951860;29;20548;-68
2022/09/26 02:01:01;;;;;;;4.80;2.78;;;;;;;10.75;96.34;100672.34;4951797;28;20035;-68
2022/09/26 02:03:35;;;;;;;5.57;3.15;;;;;;;10.75;96.36;100668.84;4951753;28;20030;-68
2022/09/26 02:06:05;;;;;;;6.72;3.45;;;;;;;10.74;96.08;100660.03;4951738;28;20110;-68
2022/09/26 02:08:43;;;;;;;11.70;3.42;;;;;;;10.70;96.49;100649.97;4951366;28;20110;-68
2022/09/26 02:11:16;;;;;;;6.57;3.92;;;;;;;10.71;96.36;100652.41;4951698;29;20039;-68
2022/09/26 02:13:58;;;;;;;6.13;3.35;;;;;;;10.66;96.10;100640.69;4951482;28;20058;-68
2022/09/26 02:16:27;;;;;;;;;;;;;;;10.73;96.20;100653.03;4952272;29;20019;-68
2022/09/26 02:19:04;;;;;;;10.68;4.07;;;;;;;10.70;95.63;100636.63;4951408;29;19911;-68
2022/09/26 02:21:29;;;;;;;9.25;3.55;;;;;;;10.70;94.98;100634.78;4951506;29;20533;-68
2022/09/26 02:23:55;;;;;;;5.28;2.83;;;;;;;10.71;94.82;100640.91;4951351;29;20114;-69
2022/09/26 02:26:21;;;;;;;4.03;2.55;;;;;;;10.69;94.73;100629.66;4951227;29;20166;-68
2022/09/26 02:28:47;;;;;;;8.25;3.00;;;;;;;10.71;94.87;100622.25;4951364;29;20122;-68
2022/09/26 02:31:19;;;;;;;8.00;2.92;;;;;;;10.68;94.40;100610.13;4950948;28;20110;-68
2022/09/26 02:33:49;;;;;;;8.38;3.88;;;;;;;10.71;94.00;100611.59;4950881;28;20475;-68
2022/09/26 02:36:15;;;;;;;7.25;3.05;;;;;;;10.72;93.99;100607.91;4951428;29;20041;-68
2022/09/26 02:38:41;;;;;;;7.97;3.40;;;;;;;10.71;94.03;100601.72;4951349;29;20486;-68
2022/09/26 02:41:25;;;;;;;10.90;3.15;;;;;;;10.72;94.00;100600.72;4951057;29;20035;-68
2022/09/26 02:44:15;;;;;;;5.45;3.03;;;;;;;10.74;93.75;100597.84;4950922;29;20024;-68
2022/09/26 02:46:44;;;;;;;6.00;3.00;;;;;;;10.73;93.78;100590.88;4950915;29;20407;-68
2022/09/26 02:49:33;;;;;;;5.55;2.75;;;;;;;10.70;93.58;100583.28;4950943;29;20039;-68
2022/09/26 02:52:14;;;;;;;8.73;3.13;;;;;;;10.72;93.81;100592.72;4951068;29;20054;-68
2022/09/26 02:54:52;;;;;;;4.38;2.92;;;;;;;10.73;93.58;100590.88;4950764;28;20566;-68
2022/09/26 02:57:26;;;;;;;6.22;4.15;;;;;;;10.73;93.52;100582.88;4950807;28;20019;-68
2022/09/26 03:00:01;;;;;;;4.57;2.47;;;;;;;10.71;93.76;100575.06;4951069;28;20035;-68
2022/09/26 03:02:43;;;;;;;7.55;2.80;;;;;;;10.72;93.53;100578.56;4950721;28;20023;-68
2022/09/26 03:05:12;;;;;;;7.00;2.80;;;;;;;10.68;93.28;100570.13;4950766;29;20435;-68
2022/09/26 03:07:45;;;;;;;10.35;3.50;;;;;;;10.71;93.26;100566.25;4950670;28;20039;-68
2022/09/26 03:10:12;;;;;;;7.55;3.47;;;;;;;10.72;93.45;100565.22;4933905;29;20035;-68
2022/09/26 03:12:38;;;;;;;8.73;3.75;;;;;;;10.71;93.45;100560.91;4950570;29;20022;-68
2022/09/26 03:15:05;;;;;;;6.65;3.08;;;;;;;10.65;92.80;100551.06;4950542;29;20042;-68
2022/09/26 03:17:33;;;;;;;9.98;3.22;;;;;;;10.70;92.85;100557.41;4950565;28;20020;-68
2022/09/26 03:20:05;;;;;;;11.13;2.47;;;;;;;10.71;92.85;100551.03;4950428;28;20039;-68
2022/09/26 03:22:32;;;;;;;7.35;3.58;;;;;;;10.71;93.18;100556.38;4950521;29;20062;-68
2022/09/26 03:24:59;;;;;;;7.45;2.83;;;;;;;10.70;93.27;100540.59;4950493;29;20027;-68
2022/09/26 03:27:26;;;;;;;6.05;2.78;;;;;;;10.66;92.66;100536.69;4950438;29;20035;-68
2022/09/26 03:29:52;;;;;;;5.95;2.40;;;;;;;10.68;92.97;100530.13;4950322;28;20027;-68
2022/09/26 03:32:17;;;;;;;10.23;4.05;;;;;;;10.68;92.62;100529.31;4950692;29;20436;-68
2022/09/26 03:34:42;;;;;;;5.00;3.08;;;;;;;10.70;92.92;100527.25;4950444;28;20070;-68
2022/09/26 03:37:08;;;;;;;11.40;3.47;;;;;;;10.68;92.92;100518.63;4950454;29;20031;-68
2022/09/26 03:39:33;;;;;;;7.70;2.47;;;;;;;10.68;93.52;100513.31;4950386;28;20035;-68
2022/09/26 03:41:59;;;;;;;6.38;2.63;;;;;;;10.68;92.83;100518.63;4950428;29;20578;-68
2022/09/26 03:44:24;;;;;;;8.10;2.40;;;;;;;10.66;92.44;100507.34;4952845;28;20035;-68
2022/09/26 03:46:50;;;;;;;7.47;3.25;;;;;;;10.61;92.99;100499.16;4954213;29;20364;-68
2022/09/26 03:49:16;;;;;;;2.97;2.42;;;;;;;10.65;92.87;100495.06;4954354;28;20046;-68
2022/09/26 03:51:43;;;;;;;4.72;3.00;;;;;;;10.64;92.74;100494.25;4953977;29;20051;-68
2022/09/26 03:54:10;;;;;;;3.90;2.75;;;;;;;10.64;92.05;100498.75;4954162;29;20035;-68
2022/09/26 03:56:36;;;;;;;3.67;2.53;;;;;;;10.63;92.24;100492.59;4954110;29;20031;-68
2022/09/26 03:59:01;;;;;;;7.20;1.98;;;;;;;10.63;92.41;100487.25;4953865;29;20038;-68
2022/09/26 04:01:27;;;;;;;5.38;2.15;;;;;;;10.63;92.02;100479.25;4953923;29;20122;-68
2022/09/26 04:03:52;;;;;;;3.58;2.25;;;;;;;10.62;92.37;100476.81;4953878;29;20035;-68
2022/09/26 04:06:19;;;;;;;4.72;2.85;;;;;;;10.57;92.51;100472.09;4953810;29;20031;-68
2022/09/26 04:08:46;;;;;;;3.75;1.98;;;;;;;10.59;92.71;100469.22;4936521;29;20028;-68
2022/09/26 04:11:13;;;;;;;4.53;2.65;;;;;;;10.59;92.42;100466.56;4953823;28;20031;-68
2022/09/26 04:13:40;;;;;;;9.07;3.55;;;;;;;10.58;92.31;100468.38;4953626;29;20068;-68
2022/09/26 04:16:06;;;;;;;3.70;2.28;;;;;;;10.58;91.88;100464.91;4953772;29;20066;-68
2022/09/26 04:18:33;;;;;;;4.85;3.08;;;;;;;10.60;92.00;100454.84;4953563;29;20031;-68
2022/09/26 04:21:00;;;;;;;3.53;2.20;;;;;;;10.58;92.37;100449.72;4953506;29;20059;-68
2022/09/26 04:23:30;;;;;;;3.65;2.08;;;;;;;10.58;91.98;100447.03;4953549;29;20126;-68
2022/09/26 04:26:03;;;;;;;5.03;2.13;;;;;;;10.57;92.66;100436.59;4953511;28;20054;-68
2022/09/26 04:28:29;;;;;;;3.85;2.28;;;;;;;10.55;92.32;100430.66;4953474;29;20028;-68
2022/09/26 04:30:57;;;;;;;6.03;2.97;;;;;;;10.54;92.36;100421.84;4953473;28;20071;-68
2022/09/26 04:33:23;;;;;;;9.23;3.03;;;;;;;10.55;92.01;100417.31;4953487;29;20037;-68
2022/09/26 04:35:48;;;;;;;4.28;2.22;;;;;;;10.53;92.53;100399.69;4953465;28;20024;-68
2022/09/26 04:38:14;;;;;;;4.82;2.45;;;;;;;10.52;92.49;100406.03;4953286;29;20122;-68
2022/09/26 04:40:39;;;;;;;5.57;3.70;;;;;;;10.51;92.32;100401.72;4953249;29;20071;-68
2022/09/26 04:43:05;;;;;;;7.65;2.50;;;;;;;10.50;92.92;100402.75;4953215;29;20498;-68
2022/09/26 04:45:30;;;;;;;8.10;2.15;;;;;;;10.50;93.00;100388.59;4953161;29;20038;-68
2022/09/26 04:47:56;;;;;;;4.80;2.30;;;;;;;10.50;93.14;100386.75;4953351;29;20027;-68
2022/09/26 04:50:21;;;;;;;4.95;2.30;;;;;;;10.47;92.89;100384.50;4953008;29;20039;-69
2022/09/26 04:52:46;;;;;;;5.15;2.30;;;;;;;10.47;92.68;100383.69;4953059;28;20030;-68
2022/09/26 04:55:12;;;;;;;5.63;2.17;;;;;;;10.46;92.86;100371.41;4952010;28;20486;-68
2022/09/26 04:57:37;;;;;;;6.93;2.30;;;;;;;10.44;92.79;100358.25;4952865;29;20458;-68
2022/09/26 05:00:05;;;;;;;3.75;1.75;;;;;;;10.47;93.42;100352.50;4953089;29;20039;-68
2022/09/26 05:02:31;;;;;;;7.25;2.72;;;;;;;10.47;92.71;100344.50;4952918;28;20488;-68
2022/09/26 05:04:58;;;;;;;4.15;2.35;;;;;;;10.46;93.14;100329.56;4952927;29;20039;-68
2022/09/26 05:07:26;;;;;;;5.50;2.95;;;;;;;10.46;92.66;100332.22;4952814;29;20395;-68
2022/09/26 05:09:52;;;;;;;5.90;2.45;;;;;;;10.46;93.24;100340.22;4952900;29;20035;-68
2022/09/26 05:12:17;;;;;;;9.13;2.75;;;;;;;10.45;93.24;100335.94;4952633;29;20117;-68
2022/09/26 05:14:43;;;;;;;6.43;2.30;;;;;;;10.46;93.00;100326.06;4952845;29;20035;-68
2022/09/26 05:17:08;;;;;;;5.05;2.33;;;;;;;10.46;93.02;100331.41;4952752;29;20114;-68
2022/09/26 05:19:34;;;;;;;7.10;3.65;;;;;;;10.44;93.00;100323.59;4935655;29;20118;-68
2022/09/26 05:21:59;;;;;;;7.13;2.40;;;;;;;10.42;93.76;100322.16;4949557;29;20059;-68
2022/09/26 05:27:08;;;;;;;6.05;3.20;;;;;;;10.41;94.42;100316.03;4952653;29;20050;-68
2022/09/26 05:29:34;;;;;;;6.70;3.20;;;;;;;10.39;95.31;100296.75;4935269;29;20035;-68
2022/09/26 05:32:00;;;;;;;5.43;2.53;;;;;;;10.34;94.88;100288.56;4934081;29;20447;-68
2022/09/26 05:34:25;;;;;;;5.18;3.47;;;;;;;10.34;95.24;100295.75;4933989;29;20114;-68
2022/09/26 05:36:51;;;;;;;5.55;2.97;;;;;;;10.34;95.29;100298.41;4933766;29;20036;-68
2022/09/26 05:42:04;;;;;;;7.32;2.97;;;;;;;10.26;96.07;100296.75;4934156;29;20428;-68
2022/09/26 05:44:29;;;;;;;5.15;2.55;;;;;;;10.24;96.37;100286.31;4933724;29;20460;-68
2022/09/26 05:46:56;;;;;;;6.22;2.90;;;;;;;10.20;96.16;100282.41;4933629;29;20035;-68
2022/09/26 05:49:21;;;;;;;7.72;3.33;;;;;;;10.25;96.11;100284.47;4933748;29;20546;-69
2022/09/26 05:51:46;;;;;;;6.32;2.67;;;;;;;10.25;96.19;100273.81;4951947;28;20110;-68
2022/09/26 05:54:12;;;;;;;6.47;2.72;;;;;;;10.25;96.02;100279.94;4951670;29;20121;-68
2022/09/26 05:56:37;;;;;;;9.70;3.53;;;;;;;10.24;95.99;100278.31;4951691;28;20038;-68
2022/09/26 05:59:03;;;;;;;15.20;4.00;;;;;;;10.24;95.84;100275.66;4934439;29;20023;-68
2022/09/26 06:01:30;;;;;;;6.95;3.15;;;;;;;10.24;95.95;100272.16;4951632;29;20046;-68
2022/09/26 06:03:56;;;;;;;11.00;3.38;;;;;;;10.27;95.85;100277.94;4951651;29;20031;-68
2022/09/26 06:06:21;;;;;;;10.35;3.90;;;;;;;10.28;95.63;100271.56;4951551;28;20039;-68
2022/09/26 06:08:47;;;;;;;9.98;4.18;;;;;;;10.27;96.33;100259.28;4951428;29;20166;-68
2022/09/26 06:11:21;;;;;;;12.90;5.15;;;;;;;10.28;97.03;100258.22;4951571;29;20406;-68
2022/09/26 06:13:46;;;;;;;3.95;2.42;;;;;;;10.27;96.92;100247.75;4951511;29;20042;-68
2022/09/26 06:16:16;;;;;;;8.98;3.53;;;;;;;10.26;96.41;100241.59;4951216;28;20031;-68
2022/09/26 06:18:41;;;;;;;9.55;3.00;;;;;;;10.27;97.05;100240.63;4951244;29;20031;-69
2022/09/26 06:21:09;;;;;;;5.95;3.03;;;;;;;10.25;96.77;100217.84;4951393;29;20407;-68
2022/09/26 06:23:35;;;;;;;5.97;2.72;;;;;;;10.27;96.86;100218.41;4951120;29;20061;-68
2022/09/26 06:26:09;;;;;;;13.48;3.72;;;;;;;10.29;96.63;100216.41;4918535;29;20035;-68
2022/09/26 06:28:35;;;;;;;6.20;3.15;;;;;;;10.29;97.31;100211.88;4932861;29;20031;-68
2022/09/26 06:31:08;;;;;;;6.32;3.03;;;;;;;10.31;96.87;100207.16;4932771;29;20042;-68
2022/09/26 06:33:34;;;;;;;4.32;2.40;;;;;;;10.27;97.04;100192.66;4932782;29;20032;-69
2022/09/26 06:36:01;;;;;;;5.03;2.65;;;;;;;10.31;97.82;100191.19;4932704;29;20384;-66
2022/09/26 06:38:27;;;;;;;8.90;3.30;;;;;;;10.32;97.40;100189.31;4932623;29;20504;-68
2022/09/26 06:40:53;;;;;;;8.60;2.72;;;;;;;10.34;97.15;100186.47;4932803;29;20038;-68
2022/09/26 06:43:19;;;;;;;7.00;2.85;;;;;;;10.36;97.84;100169.22;4932723;29;20478;-69
2022/09/26 06:45:44;;;;;;;5.72;2.50;;;;;;;10.38;97.74;100163.69;4932590;29;20035;-69
2022/09/26 06:48:10;;;;;;;8.73;2.75;;;;;;;10.37;96.80;100159.38;4932472;29;20035;-69
2022/09/26 06:50:36;;;;;;;4.30;3.08;;;;;;;10.41;97.33;100155.25;4932577;29;20086;-69
2022/09/26 06:53:03;;;;;;;5.70;2.70;;;;;;;10.38;97.12;100147.69;4932376;29;20515;-69
2022/09/26 06:55:28;;;;;;;6.40;2.92;;;;;;;10.46;96.87;100147.44;4932442;29;20042;-68
2022/09/26 06:57:54;;;;;;;7.30;2.58;;;;;;;10.44;96.71;100131.66;4932431;29;20035;-68
2022/09/26 07:00:19;;;;;;;6.97;3.22;;;;;;;10.41;96.44;100118.75;4915468;28;20031;-69
2022/09/26 07:02:52;;;;;;;8.18;2.38;;;;;;;10.51;96.46;100128.97;4936961;28;20031;-69
2022/09/26 07:05:19;;;;;;;7.72;2.97;;;;;;;10.51;96.16;100112.97;4942590;28;20035;-70
2022/09/26 07:07:46;;;;;;;6.90;2.42;;;;;;;10.53;96.62;100114.38;4933142;29;20062;-70
2022/09/26 07:10:12;;;;;;;3.60;2.40;;;;;;;10.55;96.39;100116.81;4951013;29;20042;-72
2022/09/26 07:12:42;;;;;;;12.38;3.15;;;;;;;10.59;96.65;100107.38;4950636;29;20023;-70
2022/09/26 07:15:09;;;;;;;6.95;2.33;;;;;;;10.61;95.59;100105.31;4950677;29;20494;-69
2022/09/26 07:17:35;;;;;;;4.90;2.88;;;;;;;10.66;95.61;100107.31;4950193;28;20035;-73
2022/09/26 07:20:01;;;;;;;6.70;2.38;;;;;;;10.67;95.57;100099.13;4950178;29;20039;-73
2022/09/26 07:22:26;;;;;;;8.18;3.38;;;;;;;10.67;95.60;100092.97;4950539;29;20057;-73
2022/09/26 07:24:51;;;;;;;3.88;1.95;;;;;;;10.66;95.09;100084.16;4950466;28;20023;-72
2022/09/26 07:27:17;;;;;;;4.65;2.50;;;;;;;10.70;94.67;100087.19;4950289;29;20031;-72
2022/09/26 07:29:44;;;;;;;14.27;3.28;;;;;;;10.70;95.46;100080.00;4937075;29;20034;-72
2022/09/26 07:32:10;;;;;;;6.43;2.20;;;;;;;10.72;95.47;100072.63;4950521;29;20452;-74
2022/09/26 07:34:36;;;;;;;4.78;2.33;;;;;;;10.72;94.61;100077.13;4933530;29;20095;-72
2022/09/26 07:37:01;;;;;;;5.18;2.33;;;;;;;10.74;95.19;100067.03;4932053;29;20091;-73
2022/09/26 07:39:26;;;;;;;5.72;3.00;;;;;;;10.80;94.70;100071.53;4940742;29;20502;-72
2022/09/26 07:41:52;;;;;;;5.68;2.70;;;;;;;10.75;95.64;100072.19;4950394;29;20068;-71
2022/09/26 07:44:17;;;;;;;6.47;2.83;;;;;;;10.81;95.84;100078.50;4936636;29;20677;-74
2022/09/26 07:52:11;;;;;;;6.45;2.20;;;;;;;10.80;96.13;100073.38;4946054;28;20079;-76
2022/09/26 07:54:36;;;;;;;5.57;2.45;;;;;;;10.79;96.38;100071.75;4950340;29;20031;-74
2022/09/26 07:57:03;;;;;;;3.95;2.38;;;;;;;10.79;96.19;100074.41;4950055;29;20035;-74
2022/09/26 07:59:34;;;;;;;4.32;2.42;;;;;;;10.81;96.10;100070.50;4950213;29;20039;-72
2022/09/26 08:02:01;;;;;;;4.03;2.85;;;;;;;10.82;96.16;100063.28;4950592;29;20035;-73
2022/09/26 08:04:26;;;;;;;6.90;2.78;;;;;;;10.84;96.81;100054.03;4950132;29;20542;-71
2022/09/26 08:06:54;;;;;;;4.97;2.47;;;;;;;10.81;95.93;100059.81;4950165;29;20039;-72
2022/09/26 08:09:19;;;;;;;4.70;2.72;;;;;;;10.88;96.42;100055.25;4949873;29;20047;-72
2022/09/26 08:11:45;;;;;;;5.05;2.17;;;;;;;10.89;96.62;100054.22;4950066;28;20547;-72
2022/09/26 08:14:11;;;;;;;2.65;1.90;;;;;;;10.93;96.23;100042.06;4932850;29;20121;-74
2022/09/26 08:16:40;;;;;;;4.70;2.15;;;;;;;10.96;96.33;100044.31;4949851;28;20034;-75
2022/09/26 08:19:07;;;;;;;5.75;2.25;;;;;;;11.01;96.71;100029.50;4950024;29;20131;-70
2022/09/26 08:21:33;;;;;;;6.55;2.38;;;;;;;11.02;96.51;100028.44;4949843;29;20031;-70
2022/09/26 08:23:58;;;;;;;11.18;2.67;;;;;;;11.04;96.47;100023.72;4937812;29;20039;-70
2022/09/26 08:26:23;;;;;;;4.10;2.25;;;;;;;11.05;96.35;100023.47;4931555;29;20395;-70
2022/09/26 08:28:50;;;;;;;8.10;2.88;;;;;;;11.07;97.15;100024.09;4914217;29;20407;-71
2022/09/26 08:31:16;;;;;;;6.35;2.90;;;;;;;11.10;96.25;100022.84;4938606;29;20035;-73
2022/09/26 08:33:43;;;;;;;5.82;3.42;;;;;;;11.13;95.85;100014.38;4953272;29;20501;-71
2022/09/26 08:36:10;;;;;;;5.63;2.85;;;;;;;11.18;95.73;100018.00;4938496;29;20051;-69
2022/09/26 08:38:37;;;;;;;6.03;2.20;;;;;;;11.19;96.42;100014.31;4934980;29;20031;-72
2022/09/26 08:41:10;;;;;;;4.03;2.70;;;;;;;11.20;95.96;100012.47;4952765;29;20122;-72
2022/09/26 08:43:46;;;;;;;8.80;2.45;;;;;;;11.21;95.95;100018.63;4952983;29;20371;-72
2022/09/26 08:49:23;;;;;;;7.75;2.40;;;;;;;11.15;96.61;100013.13;4953102;29;20050;-71
2022/09/26 08:51:52;;;;;;;4.57;2.50;;;;;;;11.13;96.70;100009.88;4953066;29;20360;-70
2022/09/26 08:54:35;;;;;;;5.65;2.22;;;;;;;11.16;96.63;100012.09;4953027;29;20027;-72
2022/09/26 08:57:11;;;;;;;5.47;3.60;;;;;;;11.20;96.81;100012.47;4953063;28;20054;-71
2022/09/26 08:59:44;;;;;;;4.43;2.45;;;;;;;11.26;97.17;100013.44;4934486;29;20030;-68
2022/09/26 09:02:15;;;;;;;8.27;3.05;;;;;;;11.33;97.13;100022.19;4952652;28;21032;-73
2022/09/26 09:04:50;;;;;;;5.22;2.50;;;;;;;11.34;96.21;100010.47;4952780;29;20474;-75
2022/09/26 09:07:21;;;;;;;4.40;2.40;;;;;;;11.40;96.79;100004.25;4941753;28;20087;-68
2022/09/26 09:09:48;;;;;;;6.38;2.50;;;;;;;11.42;96.25;100010.16;4938328;28;20423;-68
2022/09/26 09:12:29;;;;;;;3.47;1.98;;;;;;;11.43;96.16;99997.66;4939007;28;20032;-68
2022/09/26 09:15:32;;;;;;;3.08;2.10;;;;;;;11.51;96.46;99992.00;4940180;28;20114;-68
2022/09/26 09:18:43;;;;;;;6.82;3.05;;;;;;;11.51;96.56;99998.16;4940838;28;20032;-68
2022/09/26 09:21:19;;;;;;;6.57;2.70;;;;;;;11.48;97.80;99995.94;4921495;28;20102;-68
2022/09/26 09:24:08;;;;;;;7.03;2.28;;;;;;;11.49;97.95;99996.75;4939125;28;20106;-68
2022/09/26 09:26:45;;;;;;;4.80;2.88;;;;;;;11.38;99.76;99987.63;4940387;28;20054;-67
2022/09/26 09:29:36;;;;;;;3.65;2.28;;;;;;;11.23;100.00;99976.50;4940057;28;20054;-68
2022/09/26 09:32:03;;;;;;;8.37;3.63;;;;;;;11.15;100.00;99978.44;4939646;28;20467;-69
2022/09/26 09:34:33;;;;;;;7.20;3.90;;;;;;;11.10;100.00;99964.13;4939285;28;20514;-70
2022/09/26 09:37:06;;;;;;;7.65;3.83;;;;;;;11.06;100.00;99965.63;4937455;28;20110;-69
2022/09/26 09:39:38;;;;;;;8.85;3.45;;;;;;;11.10;100.00;99956.13;4938464;28;20038;-70
2022/09/26 09:42:40;;;;;;;5.40;2.78;;;;;;;11.17;100.00;99949.66;4937278;28;20035;-70
2022/09/26 09:45:12;;;;;;;;;;;;;;;11.30;100.00;99947.91;4920887;28;20040;-69
2022/09/26 09:47:38;;;;;;;11.30;3.88;;;;;;;11.37;100.00;99940.59;4937092;28;20009;-68
2022/09/26 09:50:13;;;;;;;6.18;3.63;;;;;;;11.41;100.00;99926.59;4937453;28;20063;-67
2022/09/26 09:52:48;;;;;;;10.02;4.30;;;;;;;11.49;100.00;99927.31;4938152;28;20120;-68
2022/09/26 09:55:51;;;;;;;7.10;3.08;;;;;;;11.51;100.00;99919.91;4938391;28;20031;-68
2022/09/26 09:58:40;;;;;;;6.47;4.15;;;;;;;11.53;100.00;99918.66;4937109;28;20027;-67
2022/09/26 10:01:07;;;;;;;3.58;2.90;;;;;;;11.61;100.00;99925.53;4937086;28;20011;-67
2022/09/26 10:03:36;;;;;;;12.40;4.47;;;;;;;11.66;100.00;99906.13;4938329;28;20390;-67
2022/09/26 10:06:03;;;;;;;5.13;3.25;;;;;;;11.71;100.00;99900.91;4937745;28;20030;-67
2022/09/26 10:08:31;;;;;;;7.50;4.18;;;;;;;11.76;100.00;99906.41;4936673;28;20495;-67
2022/09/26 10:11:15;;;;;;;8.13;3.63;;;;;;;11.78;100.00;99889.09;4937539;28;20042;-67
2022/09/26 10:13:43;;;;;;;8.02;3.35;;;;;;;11.79;100.00;99890.75;4937532;28;20031;-67
2022/09/26 10:16:13;;;;;;;5.35;2.70;;;;;;;11.76;100.00;99874.34;4938072;28;20481;-67
2022/09/26 10:19:05;;;;;;;7.05;3.15;;;;;;;11.75;100.00;99878.88;4937057;28;20089;-67
2022/09/26 10:21:42;;;;;;;7.15;2.75;;;;;;;11.75;100.00;99873.53;4938011;28;20555;-68
2022/09/26 10:24:33;;;;;;;5.53;3.33;;;;;;;11.78;100.00;99880.28;4937333;28;20031;-69
2022/09/26 10:27:35;;;;;;;9.77;3.30;;;;;;;11.75;100.00;99870.06;4937535;28;20042;-70
2022/09/26 10:30:06;;;;;;;8.02;2.75;;;;;;;11.75;100.00;99870.84;4936818;28;20043;-68
2022/09/26 10:32:44;;;;;;;7.00;2.88;;;;;;;11.75;100.00;99870.84;4937630;28;20103;-69
2022/09/26 10:35:17;;;;;;;6.82;2.95;;;;;;;11.75;100.00;99862.03;4937041;28;20027;-66
2022/09/26 10:37:45;;;;;;;8.93;3.53;;;;;;;11.72;100.00;99857.97;4936967;28;20366;-66
2022/09/26 10:40:45;;;;;;;4.85;2.92;;;;;;;11.74;100.00;99855.09;4937674;28;20046;-66
2022/09/26 10:43:29;;;;;;;5.97;3.42;;;;;;;11.67;100.00;99857.03;4938208;28;20181;-66
2022/09/26 10:46:10;;;;;;;5.95;3.42;;;;;;;11.62;100.00;99847.84;4937238;28;20031;-66
2022/09/26 10:48:47;;;;;;;5.35;2.92;;;;;;;11.59;100.00;99847.47;4935400;28;20060;-66
2022/09/26 10:51:28;;;;;;;8.35;3.05;;;;;;;11.54;100.00;99842.00;4937108;28;20051;-68
2022/09/26 10:54:17;;;;;;;4.43;2.87;;;;;;;11.53;100.00;99843.88;4935873;28;20122;-68
2022/09/26 10:56:46;;;;;;;8.88;2.70;;;;;;;11.48;100.00;99845.59;4936072;28;20031;-69
2022/09/26 10:59:17;;;;;;;7.88;2.90;;;;;;;11.46;100.00;99842.34;4936095;28;20027;-69
2022/09/26 11:01:48;;;;;;;8.00;3.58;;;;;;;11.42;100.00;99836.63;4937345;28;20027;-69
2022/09/26 11:07:23;;;;;;;7.88;2.92;;;;;;;11.46;100.00;99826.31;4936412;28;20046;-68
2022/09/26 11:09:48;;;;;;;5.93;2.85;;;;;;;11.48;100.00;99819.72;4937255;28;20027;-68
2022/09/26 11:12:24;;;;;;;5.70;3.60;;;;;;;11.49;100.00;99820.50;4936712;28;20403;-68
2022/09/26 11:14:57;;;;;;;8.27;4.03;;;;;;;11.48;100.00;99822.38;4935397;28;20090;-68
2022/09/26 11:17:46;;;;;;;8.57;3.03;;;;;;;11.48;100.00;99814.38;4936741;28;20030;-68
2022/09/26 11:20:26;;;;;;;5.30;2.75;;;;;;;11.50;100.00;99822.97;4936544;28;20452;-68
2022/09/26 11:23:03;;;;;;;9.68;3.95;;;;;;;11.47;100.00;99815.38;4935627;28;20050;-68
2022/09/26 11:25:56;;;;;;;6.88;2.83;;;;;;;11.46;100.00;99812.97;4936158;28;20016;-69
2022/09/26 11:28:31;;;;;;;8.05;3.28;;;;;;;11.46;100.00;99808.44;4921895;28;20039;-66
2022/09/26 11:31:02;;;;;;;5.38;2.88;;;;;;;11.44;100.00;99810.50;4936519;28;20025;-66
2022/09/26 11:33:29;;;;;;;7.67;3.33;;;;;;;11.39;100.00;99807.72;4935755;28;20031;-66
2022/09/26 11:36:17;;;;;;;7.15;4.15;;;;;;;11.30;100.00;99801.06;4936724;28;20043;-67
2022/09/26 11:39:04;;;;;;;5.78;3.40;;;;;;;11.26;100.00;99795.38;4937163;28;20047;-67
2022/09/26 11:42:00;;;;;;;4.05;2.83;;;;;;;11.23;100.00;99790.47;4936680;28;20063;-67
2022/09/26 11:44:35;;;;;;;4.15;2.65;;;;;;;11.21;100.00;99802.44;4936694;28;20027;-66
2022/09/26 11:47:33;;;;;;;4.18;2.83;;;;;;;11.17;100.00;99802.88;4938390;28;20551;-66
2022/09/26 11:50:16;;;;;;;8.75;3.63;;;;;;;11.14;100.00;99798.00;4937984;28;20036;-65
2022/09/26 11:52:58;;;;;;;5.65;3.35;;;;;;;11.10;100.00;99799.47;4936131;28;20403;-66
2022/09/26 11:55:36;;;;;;;9.95;3.67;;;;;;;11.10;100.00;99794.16;4936059;28;20015;-66
2022/09/26 11:58:13;;;;;;;6.88;3.22;;;;;;;11.10;100.00;99794.16;4936292;28;20075;-66
2022/09/26 12:00:45;;;;;;;7.47;3.20;;;;;;;11.09;100.00;99795.19;4936127;28;20023;-66